sensor_id;sensor_type;location;lat;lon;timestamp;P1;durP1;ratioP1;P2;durP2;ratioP2
73474;SDS011;61711;52.266;10.542;2023-04-28T00:01:48;5.97;;;3.60;;
73474;SDS011;61711;52.266;10.542;2023-04-28T00:04:14;7.38;;;3.95;;
73474;SDS011;61711;52.266;10.542;2023-04-28T00:06:40;7.97;;;3.92;;
73474;SDS011;61711;52.266;10.542;2023-04-28T00:09:06;5.80;;;3.80;;
73474;SDS011;61711;52.266;10.542;2023-04-28T00:11:36;14.75;;;4.05;;
73474;SDS011;61711;52.266;10.542;2023-04-28T00:14:02;7.65;;;3.80;;
73474;SDS011;61711;52.266;10.542;2023-04-28T00:16:29;7.15;;;3.55;;
73474;SDS011;61711;52.266;10.542;2023-04-28T00:18:55;5.88;;;3.72;;
73474;SDS011;61711;52.266;10.542;2023-04-28T00:21:21;7.93;;;3.60;;
73474;SDS011;61711;52.266;10.542;2023-04-28T00:23:47;6.38;;;4.05;;
73474;SDS011;61711;52.266;10.542;2023-04-28T00:26:13;6.72;;;3.88;;
73474;SDS011;61711;52.266;10.542;2023-04-28T00:28:39;6.72;;;3.80;;
73474;SDS011;61711;52.266;10.542;2023-04-28T00:31:09;8.98;;;3.95;;
73474;SDS011;61711;52.266;10.542;2023-04-28T00:33:36;6.25;;;3.72;;
73474;SDS011;61711;52.266;10.542;2023-04-28T00:36:02;5.95;;;4.07;;
73474;SDS011;61711;52.266;10.542;2023-04-28T00:38:29;8.05;;;3.92;;
73474;SDS011;61711;52.266;10.542;2023-04-28T00:40:55;5.93;;;3.78;;
73474;SDS011;61711;52.266;10.542;2023-04-28T00:43:21;9.38;;;3.95;;
73474;SDS011;61711;52.266;10.542;2023-04-28T00:45:50;6.38;;;4.00;;
73474;SDS011;61711;52.266;10.542;2023-04-28T00:48:16;9.18;;;4.15;;
73474;SDS011;61711;52.266;10.542;2023-04-28T00:50:43;6.80;;;3.95;;
73474;SDS011;61711;52.266;10.542;2023-04-28T00:53:10;7.15;;;4.18;;
73474;SDS011;61711;52.266;10.542;2023-04-28T00:55:36;8.63;;;4.30;;
73474;SDS011;61711;52.266;10.542;2023-04-28T00:58:02;6.32;;;4.03;;
73474;SDS011;61711;52.266;10.542;2023-04-28T01:00:28;7.43;;;4.13;;
73474;SDS011;61711;52.266;10.542;2023-04-28T01:02:54;9.85;;;4.50;;
73474;SDS011;61711;52.266;10.542;2023-04-28T01:05:21;8.05;;;4.05;;
73474;SDS011;61711;52.266;10.542;2023-04-28T01:07:48;7.55;;;4.30;;
73474;SDS011;61711;52.266;10.542;2023-04-28T01:10:14;5.78;;;4.00;;
73474;SDS011;61711;52.266;10.542;2023-04-28T01:12:40;11.60;;;4.13;;
73474;SDS011;61711;52.266;10.542;2023-04-28T01:15:07;6.53;;;3.70;;
73474;SDS011;61711;52.266;10.542;2023-04-28T01:17:36;6.63;;;3.88;;
73474;SDS011;61711;52.266;10.542;2023-04-28T01:20:03;8.18;;;3.85;;
73474;SDS011;61711;52.266;10.542;2023-04-28T01:22:29;6.97;;;4.15;;
73474;SDS011;61711;52.266;10.542;2023-04-28T01:24:55;9.50;;;4.30;;
73474;SDS011;61711;52.266;10.542;2023-04-28T01:27:22;8.02;;;4.95;;
73474;SDS011;61711;52.266;10.542;2023-04-28T01:29:48;6.70;;;3.78;;
73474;SDS011;61711;52.266;10.542;2023-04-28T01:32:14;11.18;;;4.80;;
73474;SDS011;61711;52.266;10.542;2023-04-28T01:34:39;7.75;;;3.80;;
73474;SDS011;61711;52.266;10.542;2023-04-28T01:37:05;7.95;;;3.88;;
73474;SDS011;61711;52.266;10.542;2023-04-28T01:39:31;6.22;;;3.90;;
73474;SDS011;61711;52.266;10.542;2023-04-28T01:41:59;4.75;;;3.40;;
73474;SDS011;61711;52.266;10.542;2023-04-28T01:44:26;7.93;;;3.83;;
73474;SDS011;61711;52.266;10.542;2023-04-28T01:46:52;6.40;;;3.78;;
73474;SDS011;61711;52.266;10.542;2023-04-28T01:49:18;8.63;;;4.15;;
73474;SDS011;61711;52.266;10.542;2023-04-28T01:51:44;7.05;;;4.10;;
73474;SDS011;61711;52.266;10.542;2023-04-28T01:54:10;9.80;;;3.92;;
73474;SDS011;61711;52.266;10.542;2023-04-28T01:56:36;7.00;;;3.80;;
73474;SDS011;61711;52.266;10.542;2023-04-28T01:59:02;8.20;;;4.10;;
73474;SDS011;61711;52.266;10.542;2023-04-28T02:01:28;6.32;;;3.95;;
73474;SDS011;61711;52.266;10.542;2023-04-28T02:03:54;8.70;;;3.72;;
73474;SDS011;61711;52.266;10.542;2023-04-28T02:06:20;8.25;;;3.80;;
73474;SDS011;61711;52.266;10.542;2023-04-28T02:08:46;5.75;;;3.63;;
73474;SDS011;61711;52.266;10.542;2023-04-28T02:11:12;5.78;;;3.58;;
73474;SDS011;61711;52.266;10.542;2023-04-28T02:13:38;7.80;;;3.85;;
73474;SDS011;61711;52.266;10.542;2023-04-28T02:16:04;5.50;;;3.58;;
73474;SDS011;61711;52.266;10.542;2023-04-28T02:18:30;6.95;;;3.50;;
73474;SDS011;61711;52.266;10.542;2023-04-28T02:20:56;6.65;;;4.10;;
73474;SDS011;61711;52.266;10.542;2023-04-28T02:23:22;6.78;;;3.88;;
73474;SDS011;61711;52.266;10.542;2023-04-28T02:25:48;6.45;;;3.95;;
73474;SDS011;61711;52.266;10.542;2023-04-28T02:28:14;6.80;;;3.50;;
73474;SDS011;61711;52.266;10.542;2023-04-28T02:30:40;9.80;;;3.95;;
73474;SDS011;61711;52.266;10.542;2023-04-28T02:33:06;8.82;;;3.88;;
73474;SDS011;61711;52.266;10.542;2023-04-28T02:35:32;8.20;;;4.15;;
73474;SDS011;61711;52.266;10.542;2023-04-28T02:37:58;8.68;;;4.70;;
73474;SDS011;61711;52.266;10.542;2023-04-28T02:40:24;10.43;;;3.95;;
73474;SDS011;61711;52.266;10.542;2023-04-28T02:42:50;8.38;;;4.07;;
73474;SDS011;61711;52.266;10.542;2023-04-28T02:45:16;6.90;;;4.07;;
73474;SDS011;61711;52.266;10.542;2023-04-28T02:47:42;5.82;;;3.85;;
73474;SDS011;61711;52.266;10.542;2023-04-28T02:50:08;8.38;;;4.40;;
73474;SDS011;61711;52.266;10.542;2023-04-28T02:52:35;6.60;;;3.72;;
73474;SDS011;61711;52.266;10.542;2023-04-28T02:55:01;6.70;;;4.07;;
73474;SDS011;61711;52.266;10.542;2023-04-28T02:57:28;7.05;;;4.15;;
73474;SDS011;61711;52.266;10.542;2023-04-28T02:59:54;9.80;;;4.18;;
73474;SDS011;61711;52.266;10.542;2023-04-28T03:02:21;7.75;;;4.00;;
73474;SDS011;61711;52.266;10.542;2023-04-28T03:04:47;6.10;;;3.90;;
73474;SDS011;61711;52.266;10.542;2023-04-28T03:07:13;7.95;;;4.18;;
73474;SDS011;61711;52.266;10.542;2023-04-28T03:09:39;8.57;;;4.32;;
73474;SDS011;61711;52.266;10.542;2023-04-28T03:12:05;7.53;;;3.95;;
73474;SDS011;61711;52.266;10.542;2023-04-28T03:14:31;5.28;;;4.00;;
73474;SDS011;61711;52.266;10.542;2023-04-28T03:16:57;8.70;;;4.20;;
73474;SDS011;61711;52.266;10.542;2023-04-28T03:19:23;7.13;;;4.10;;
73474;SDS011;61711;52.266;10.542;2023-04-28T03:21:50;10.13;;;5.22;;
73474;SDS011;61711;52.266;10.542;2023-04-28T03:24:16;8.93;;;4.13;;
73474;SDS011;61711;52.266;10.542;2023-04-28T03:26:42;7.70;;;3.75;;
73474;SDS011;61711;52.266;10.542;2023-04-28T03:29:08;7.72;;;4.13;;
73474;SDS011;61711;52.266;10.542;2023-04-28T03:31:34;6.70;;;4.30;;
73474;SDS011;61711;52.266;10.542;2023-04-28T03:34:00;9.98;;;3.90;;
73474;SDS011;61711;52.266;10.542;2023-04-28T03:36:27;10.18;;;4.25;;
73474;SDS011;61711;52.266;10.542;2023-04-28T03:38:53;6.13;;;4.40;;
73474;SDS011;61711;52.266;10.542;2023-04-28T03:41:19;6.95;;;4.18;;
73474;SDS011;61711;52.266;10.542;2023-04-28T03:43:45;6.70;;;4.35;;
73474;SDS011;61711;52.266;10.542;2023-04-28T03:46:11;6.95;;;4.10;;
73474;SDS011;61711;52.266;10.542;2023-04-28T03:48:37;9.13;;;4.57;;
73474;SDS011;61711;52.266;10.542;2023-04-28T03:51:03;8.48;;;5.40;;
73474;SDS011;61711;52.266;10.542;2023-04-28T03:53:29;8.35;;;4.85;;
73474;SDS011;61711;52.266;10.542;2023-04-28T03:55:55;8.15;;;4.90;;
73474;SDS011;61711;52.266;10.542;2023-04-28T03:58:21;9.45;;;4.82;;
73474;SDS011;61711;52.266;10.542;2023-04-28T04:00:47;8.68;;;4.57;;
73474;SDS011;61711;52.266;10.542;2023-04-28T04:03:13;9.20;;;5.32;;
73474;SDS011;61711;52.266;10.542;2023-04-28T04:05:39;9.23;;;4.97;;
73474;SDS011;61711;52.266;10.542;2023-04-28T04:08:05;9.88;;;5.15;;
73474;SDS011;61711;52.266;10.542;2023-04-28T04:10:31;7.93;;;5.03;;
73474;SDS011;61711;52.266;10.542;2023-04-28T04:12:57;11.00;;;4.75;;
73474;SDS011;61711;52.266;10.542;2023-04-28T04:15:23;10.73;;;5.10;;
73474;SDS011;61711;52.266;10.542;2023-04-28T04:17:49;8.88;;;4.60;;
73474;SDS011;61711;52.266;10.542;2023-04-28T04:20:15;7.55;;;4.75;;
73474;SDS011;61711;52.266;10.542;2023-04-28T04:22:41;10.80;;;5.25;;
73474;SDS011;61711;52.266;10.542;2023-04-28T04:25:07;11.93;;;5.15;;
73474;SDS011;61711;52.266;10.542;2023-04-28T04:27:33;7.38;;;4.60;;
73474;SDS011;61711;52.266;10.542;2023-04-28T04:29:59;9.63;;;5.28;;
73474;SDS011;61711;52.266;10.542;2023-04-28T04:32:26;8.05;;;5.00;;
73474;SDS011;61711;52.266;10.542;2023-04-28T04:34:52;10.23;;;5.55;;
73474;SDS011;61711;52.266;10.542;2023-04-28T04:37:18;10.45;;;5.13;;
73474;SDS011;61711;52.266;10.542;2023-04-28T04:39:44;9.02;;;5.53;;
73474;SDS011;61711;52.266;10.542;2023-04-28T04:42:10;9.40;;;5.20;;
73474;SDS011;61711;52.266;10.542;2023-04-28T04:44:36;10.00;;;5.57;;
73474;SDS011;61711;52.266;10.542;2023-04-28T04:47:02;10.07;;;5.20;;
73474;SDS011;61711;52.266;10.542;2023-04-28T04:49:28;11.93;;;5.45;;
73474;SDS011;61711;52.266;10.542;2023-04-28T04:51:54;8.50;;;5.30;;
73474;SDS011;61711;52.266;10.542;2023-04-28T04:54:20;11.82;;;5.85;;
73474;SDS011;61711;52.266;10.542;2023-04-28T04:56:46;11.65;;;5.45;;
73474;SDS011;61711;52.266;10.542;2023-04-28T04:59:12;10.25;;;5.82;;
73474;SDS011;61711;52.266;10.542;2023-04-28T05:01:38;9.15;;;5.57;;
73474;SDS011;61711;52.266;10.542;2023-04-28T05:04:04;10.35;;;5.30;;
73474;SDS011;61711;52.266;10.542;2023-04-28T05:06:30;10.52;;;5.82;;
73474;SDS011;61711;52.266;10.542;2023-04-28T05:08:56;9.57;;;6.03;;
73474;SDS011;61711;52.266;10.542;2023-04-28T05:11:23;14.00;;;6.70;;
73474;SDS011;61711;52.266;10.542;2023-04-28T05:13:50;10.50;;;6.10;;
73474;SDS011;61711;52.266;10.542;2023-04-28T05:16:15;10.70;;;6.35;;
73474;SDS011;61711;52.266;10.542;2023-04-28T05:18:42;12.20;;;6.78;;
73474;SDS011;61711;52.266;10.542;2023-04-28T05:21:08;13.32;;;7.00;;
73474;SDS011;61711;52.266;10.542;2023-04-28T05:23:35;12.48;;;6.22;;
73474;SDS011;61711;52.266;10.542;2023-04-28T05:26:01;12.23;;;6.25;;
73474;SDS011;61711;52.266;10.542;2023-04-28T05:28:29;11.93;;;7.05;;
73474;SDS011;61711;52.266;10.542;2023-04-28T05:30:55;11.43;;;6.68;;
73474;SDS011;61711;52.266;10.542;2023-04-28T05:33:21;14.45;;;7.05;;
73474;SDS011;61711;52.266;10.542;2023-04-28T05:35:48;14.15;;;7.20;;
73474;SDS011;61711;52.266;10.542;2023-04-28T05:38:14;14.63;;;6.88;;
73474;SDS011;61711;52.266;10.542;2023-04-28T05:40:40;11.63;;;6.75;;
73474;SDS011;61711;52.266;10.542;2023-04-28T05:43:06;13.43;;;7.22;;
73474;SDS011;61711;52.266;10.542;2023-04-28T05:45:32;12.15;;;7.03;;
73474;SDS011;61711;52.266;10.542;2023-04-28T05:47:59;14.38;;;7.65;;
73474;SDS011;61711;52.266;10.542;2023-04-28T05:50:25;14.30;;;7.53;;
73474;SDS011;61711;52.266;10.542;2023-04-28T05:52:52;13.00;;;7.65;;
73474;SDS011;61711;52.266;10.542;2023-04-28T05:55:18;13.30;;;7.57;;
73474;SDS011;61711;52.266;10.542;2023-04-28T05:57:44;12.50;;;7.03;;
73474;SDS011;61711;52.266;10.542;2023-04-28T06:00:10;11.48;;;7.38;;
73474;SDS011;61711;52.266;10.542;2023-04-28T06:02:37;13.45;;;7.57;;
73474;SDS011;61711;52.266;10.542;2023-04-28T06:05:03;17.27;;;7.97;;
73474;SDS011;61711;52.266;10.542;2023-04-28T06:07:29;13.32;;;7.68;;
73474;SDS011;61711;52.266;10.542;2023-04-28T06:09:55;13.25;;;8.00;;
73474;SDS011;61711;52.266;10.542;2023-04-28T06:12:21;15.10;;;8.27;;
73474;SDS011;61711;52.266;10.542;2023-04-28T06:14:47;15.13;;;8.00;;
73474;SDS011;61711;52.266;10.542;2023-04-28T06:17:13;16.10;;;8.35;;
73474;SDS011;61711;52.266;10.542;2023-04-28T06:19:39;16.15;;;8.32;;
73474;SDS011;61711;52.266;10.542;2023-04-28T06:22:05;15.45;;;8.82;;
73474;SDS011;61711;52.266;10.542;2023-04-28T06:24:31;16.73;;;8.30;;
73474;SDS011;61711;52.266;10.542;2023-04-28T06:26:57;14.32;;;8.30;;
73474;SDS011;61711;52.266;10.542;2023-04-28T06:29:23;13.75;;;8.52;;
73474;SDS011;61711;52.266;10.542;2023-04-28T06:31:49;16.30;;;8.18;;
73474;SDS011;61711;52.266;10.542;2023-04-28T06:34:16;11.88;;;8.02;;
73474;SDS011;61711;52.266;10.542;2023-04-28T06:36:42;14.90;;;8.50;;
73474;SDS011;61711;52.266;10.542;2023-04-28T06:39:08;16.17;;;8.20;;
73474;SDS011;61711;52.266;10.542;2023-04-28T06:41:34;13.07;;;8.38;;
73474;SDS011;61711;52.266;10.542;2023-04-28T06:44:00;17.98;;;8.50;;
73474;SDS011;61711;52.266;10.542;2023-04-28T06:46:26;15.63;;;9.10;;
73474;SDS011;61711;52.266;10.542;2023-04-28T06:48:52;15.68;;;8.32;;
73474;SDS011;61711;52.266;10.542;2023-04-28T06:51:18;17.45;;;8.18;;
73474;SDS011;61711;52.266;10.542;2023-04-28T06:53:44;15.63;;;9.00;;
73474;SDS011;61711;52.266;10.542;2023-04-28T06:56:10;16.52;;;8.52;;
73474;SDS011;61711;52.266;10.542;2023-04-28T06:58:36;15.32;;;9.73;;
73474;SDS011;61711;52.266;10.542;2023-04-28T07:01:02;15.05;;;9.52;;
73474;SDS011;61711;52.266;10.542;2023-04-28T07:03:29;27.45;;;16.13;;
73474;SDS011;61711;52.266;10.542;2023-04-28T07:05:56;20.55;;;9.85;;
73474;SDS011;61711;52.266;10.542;2023-04-28T07:08:22;17.05;;;8.93;;
73474;SDS011;61711;52.266;10.542;2023-04-28T07:10:48;15.60;;;9.27;;
73474;SDS011;61711;52.266;10.542;2023-04-28T07:13:14;16.35;;;8.50;;
73474;SDS011;61711;52.266;10.542;2023-04-28T07:15:40;15.00;;;9.68;;
73474;SDS011;61711;52.266;10.542;2023-04-28T07:18:06;16.13;;;9.23;;
73474;SDS011;61711;52.266;10.542;2023-04-28T07:20:32;17.48;;;9.20;;
73474;SDS011;61711;52.266;10.542;2023-04-28T07:22:58;16.15;;;9.35;;
73474;SDS011;61711;52.266;10.542;2023-04-28T07:25:24;18.40;;;9.70;;
73474;SDS011;61711;52.266;10.542;2023-04-28T07:27:51;15.57;;;10.27;;
73474;SDS011;61711;52.266;10.542;2023-04-28T07:30:18;17.88;;;9.73;;
73474;SDS011;61711;52.266;10.542;2023-04-28T07:32:44;17.33;;;9.30;;
73474;SDS011;61711;52.266;10.542;2023-04-28T07:35:10;18.73;;;9.63;;
73474;SDS011;61711;52.266;10.542;2023-04-28T07:37:36;18.73;;;10.27;;
73474;SDS011;61711;52.266;10.542;2023-04-28T07:40:02;15.60;;;9.10;;
73474;SDS011;61711;52.266;10.542;2023-04-28T07:42:28;17.95;;;10.00;;
73474;SDS011;61711;52.266;10.542;2023-04-28T07:44:54;16.25;;;9.82;;
73474;SDS011;61711;52.266;10.542;2023-04-28T07:47:22;26.42;;;12.57;;
73474;SDS011;61711;52.266;10.542;2023-04-28T07:49:48;21.17;;;9.88;;
73474;SDS011;61711;52.266;10.542;2023-04-28T07:52:14;18.35;;;10.07;;
73474;SDS011;61711;52.266;10.542;2023-04-28T07:54:40;15.88;;;9.73;;
73474;SDS011;61711;52.266;10.542;2023-04-28T07:57:06;16.98;;;9.27;;
73474;SDS011;61711;52.266;10.542;2023-04-28T07:59:34;18.88;;;10.15;;
73474;SDS011;61711;52.266;10.542;2023-04-28T08:02:00;17.35;;;9.60;;
73474;SDS011;61711;52.266;10.542;2023-04-28T08:04:26;16.02;;;9.52;;
73474;SDS011;61711;52.266;10.542;2023-04-28T08:06:52;15.35;;;9.48;;
73474;SDS011;61711;52.266;10.542;2023-04-28T08:09:18;14.18;;;9.52;;
73474;SDS011;61711;52.266;10.542;2023-04-28T08:11:44;16.15;;;9.13;;
73474;SDS011;61711;52.266;10.542;2023-04-28T08:14:10;18.88;;;10.13;;
73474;SDS011;61711;52.266;10.542;2023-04-28T08:16:36;17.05;;;9.82;;
73474;SDS011;61711;52.266;10.542;2023-04-28T08:19:05;17.88;;;9.77;;
73474;SDS011;61711;52.266;10.542;2023-04-28T08:21:31;20.67;;;11.65;;
73474;SDS011;61711;52.266;10.542;2023-04-28T08:23:58;20.88;;;9.90;;
73474;SDS011;61711;52.266;10.542;2023-04-28T08:26:24;16.15;;;9.35;;
73474;SDS011;61711;52.266;10.542;2023-04-28T08:28:50;16.95;;;9.57;;
73474;SDS011;61711;52.266;10.542;2023-04-28T08:31:16;17.23;;;9.48;;
73474;SDS011;61711;52.266;10.542;2023-04-28T08:33:42;16.13;;;10.13;;
73474;SDS011;61711;52.266;10.542;2023-04-28T08:36:12;14.82;;;9.85;;
73474;SDS011;61711;52.266;10.542;2023-04-28T08:38:39;16.42;;;10.30;;
73474;SDS011;61711;52.266;10.542;2023-04-28T08:41:06;14.35;;;9.18;;
73474;SDS011;61711;52.266;10.542;2023-04-28T08:43:33;16.52;;;10.23;;
73474;SDS011;61711;52.266;10.542;2023-04-28T08:46:00;15.55;;;9.85;;
73474;SDS011;61711;52.266;10.542;2023-04-28T08:48:28;16.15;;;9.57;;
73474;SDS011;61711;52.266;10.542;2023-04-28T08:50:56;19.05;;;10.45;;
73474;SDS011;61711;52.266;10.542;2023-04-28T08:53:25;15.85;;;9.73;;
73474;SDS011;61711;52.266;10.542;2023-04-28T08:55:55;14.73;;;9.93;;
73474;SDS011;61711;52.266;10.542;2023-04-28T08:58:22;15.80;;;10.38;;
73474;SDS011;61711;52.266;10.542;2023-04-28T09:00:48;15.82;;;9.75;;
73474;SDS011;61711;52.266;10.542;2023-04-28T09:03:14;16.58;;;9.43;;
73474;SDS011;61711;52.266;10.542;2023-04-28T09:05:40;15.82;;;9.80;;
73474;SDS011;61711;52.266;10.542;2023-04-28T09:08:07;15.18;;;9.48;;
73474;SDS011;61711;52.266;10.542;2023-04-28T09:10:33;15.43;;;8.75;;
73474;SDS011;61711;52.266;10.542;2023-04-28T09:12:59;16.02;;;9.75;;
73474;SDS011;61711;52.266;10.542;2023-04-28T09:17:51;16.02;;;9.63;;
73474;SDS011;61711;52.266;10.542;2023-04-28T09:20:21;18.73;;;9.45;;
73474;SDS011;61711;52.266;10.542;2023-04-28T09:22:47;14.98;;;8.77;;
73474;SDS011;61711;52.266;10.542;2023-04-28T09:25:14;14.55;;;9.05;;
73474;SDS011;61711;52.266;10.542;2023-04-28T09:27:40;16.25;;;8.75;;
73474;SDS011;61711;52.266;10.542;2023-04-28T09:30:06;15.27;;;9.30;;
73474;SDS011;61711;52.266;10.542;2023-04-28T09:32:34;12.63;;;8.88;;
73474;SDS011;61711;52.266;10.542;2023-04-28T09:35:00;16.48;;;9.48;;
73474;SDS011;61711;52.266;10.542;2023-04-28T09:37:28;17.80;;;9.18;;
73474;SDS011;61711;52.266;10.542;2023-04-28T09:39:55;14.10;;;9.40;;
73474;SDS011;61711;52.266;10.542;2023-04-28T09:44:57;14.27;;;8.95;;
73474;SDS011;61711;52.266;10.542;2023-04-28T09:47:24;14.57;;;9.32;;
73474;SDS011;61711;52.266;10.542;2023-04-28T09:49:58;17.85;;;9.60;;
73474;SDS011;61711;52.266;10.542;2023-04-28T09:52:24;16.30;;;9.50;;
73474;SDS011;61711;52.266;10.542;2023-04-28T09:54:51;15.00;;;9.50;;
73474;SDS011;61711;52.266;10.542;2023-04-28T09:57:17;15.10;;;9.20;;
73474;SDS011;61711;52.266;10.542;2023-04-28T09:59:48;17.58;;;9.40;;
73474;SDS011;61711;52.266;10.542;2023-04-28T10:02:15;14.63;;;9.25;;
73474;SDS011;61711;52.266;10.542;2023-04-28T10:04:42;19.83;;;9.77;;
73474;SDS011;61711;52.266;10.542;2023-04-28T10:07:10;15.68;;;9.85;;
73474;SDS011;61711;52.266;10.542;2023-04-28T10:09:37;16.27;;;10.00;;
73474;SDS011;61711;52.266;10.542;2023-04-28T10:12:03;18.00;;;10.30;;
73474;SDS011;61711;52.266;10.542;2023-04-28T10:14:30;19.35;;;11.15;;
73474;SDS011;61711;52.266;10.542;2023-04-28T10:16:57;19.42;;;10.13;;
73474;SDS011;61711;52.266;10.542;2023-04-28T10:19:24;17.30;;;9.90;;
73474;SDS011;61711;52.266;10.542;2023-04-28T10:21:57;19.75;;;10.15;;
73474;SDS011;61711;52.266;10.542;2023-04-28T10:24:30;17.55;;;10.15;;
73474;SDS011;61711;52.266;10.542;2023-04-28T10:27:04;19.02;;;10.77;;
73474;SDS011;61711;52.266;10.542;2023-04-28T10:29:31;15.60;;;10.73;;
73474;SDS011;61711;52.266;10.542;2023-04-28T10:34:41;18.25;;;10.63;;
73474;SDS011;61711;52.266;10.542;2023-04-28T10:37:07;16.58;;;11.48;;
73474;SDS011;61711;52.266;10.542;2023-04-28T10:39:33;16.52;;;10.30;;
73474;SDS011;61711;52.266;10.542;2023-04-28T10:41:59;16.88;;;11.10;;
73474;SDS011;61711;52.266;10.542;2023-04-28T10:55:26;21.77;;;11.35;;
73474;SDS011;61711;52.266;10.542;2023-04-28T11:00:39;18.27;;;11.00;;
73474;SDS011;61711;52.266;10.542;2023-04-28T11:03:05;14.45;;;10.88;;
73474;SDS011;61711;52.266;10.542;2023-04-28T11:05:31;17.88;;;10.50;;
73474;SDS011;61711;52.266;10.542;2023-04-28T11:13:29;17.67;;;11.35;;
73474;SDS011;61711;52.266;10.542;2023-04-28T11:16:01;19.55;;;11.45;;
73474;SDS011;61711;52.266;10.542;2023-04-28T11:18:28;16.83;;;11.20;;
73474;SDS011;61711;52.266;10.542;2023-04-28T11:20:55;19.63;;;11.57;;
73474;SDS011;61711;52.266;10.542;2023-04-28T11:23:23;16.73;;;10.80;;
73474;SDS011;61711;52.266;10.542;2023-04-28T11:25:53;18.45;;;10.98;;
73474;SDS011;61711;52.266;10.542;2023-04-28T11:28:19;18.25;;;11.52;;
73474;SDS011;61711;52.266;10.542;2023-04-28T11:30:45;18.45;;;10.98;;
73474;SDS011;61711;52.266;10.542;2023-04-28T11:33:12;18.15;;;11.07;;
73474;SDS011;61711;52.266;10.542;2023-04-28T11:35:41;16.58;;;11.30;;
73474;SDS011;61711;52.266;10.542;2023-04-28T11:38:07;19.23;;;11.13;;
73474;SDS011;61711;52.266;10.542;2023-04-28T11:40:33;14.98;;;10.77;;
73474;SDS011;61711;52.266;10.542;2023-04-28T11:42:59;19.33;;;10.88;;
73474;SDS011;61711;52.266;10.542;2023-04-28T11:45:28;16.63;;;11.00;;
73474;SDS011;61711;52.266;10.542;2023-04-28T11:47:54;15.95;;;11.05;;
73474;SDS011;61711;52.266;10.542;2023-04-28T11:50:36;17.33;;;10.75;;
73474;SDS011;61711;52.266;10.542;2023-04-28T11:53:02;17.40;;;11.02;;
73474;SDS011;61711;52.266;10.542;2023-04-28T11:55:28;17.23;;;11.05;;
73474;SDS011;61711;52.266;10.542;2023-04-28T12:00:39;16.38;;;10.95;;
73474;SDS011;61711;52.266;10.542;2023-04-28T12:03:06;18.70;;;11.93;;
73474;SDS011;61711;52.266;10.542;2023-04-28T12:05:32;19.00;;;10.77;;
73474;SDS011;61711;52.266;10.542;2023-04-28T12:08:00;17.25;;;11.40;;
73474;SDS011;61711;52.266;10.542;2023-04-28T12:10:26;19.95;;;11.63;;
73474;SDS011;61711;52.266;10.542;2023-04-28T12:12:52;19.05;;;10.77;;
73474;SDS011;61711;52.266;10.542;2023-04-28T12:15:18;23.35;;;10.60;;
73474;SDS011;61711;52.266;10.542;2023-04-28T12:17:44;15.82;;;10.23;;
73474;SDS011;61711;52.266;10.542;2023-04-28T12:20:11;19.88;;;11.13;;
73474;SDS011;61711;52.266;10.542;2023-04-28T12:22:57;15.75;;;10.30;;
73474;SDS011;61711;52.266;10.542;2023-04-28T12:25:23;16.30;;;10.98;;
73474;SDS011;61711;52.266;10.542;2023-04-28T12:28:02;14.05;;;10.75;;
73474;SDS011;61711;52.266;10.542;2023-04-28T12:30:29;16.40;;;10.73;;
73474;SDS011;61711;52.266;10.542;2023-04-28T12:32:56;19.33;;;10.73;;
73474;SDS011;61711;52.266;10.542;2023-04-28T12:35:22;17.33;;;10.68;;
73474;SDS011;61711;52.266;10.542;2023-04-28T12:37:49;17.45;;;10.95;;
73474;SDS011;61711;52.266;10.542;2023-04-28T12:40:15;20.15;;;11.25;;
73474;SDS011;61711;52.266;10.542;2023-04-28T12:42:41;15.20;;;10.57;;
73474;SDS011;61711;52.266;10.542;2023-04-28T12:45:07;15.82;;;10.77;;
73474;SDS011;61711;52.266;10.542;2023-04-28T12:47:34;16.45;;;10.25;;
73474;SDS011;61711;52.266;10.542;2023-04-28T12:50:00;17.63;;;11.25;;
73474;SDS011;61711;52.266;10.542;2023-04-28T12:52:26;18.58;;;12.45;;
73474;SDS011;61711;52.266;10.542;2023-04-28T12:54:52;16.80;;;11.15;;
73474;SDS011;61711;52.266;10.542;2023-04-28T12:57:18;16.73;;;11.38;;
73474;SDS011;61711;52.266;10.542;2023-04-28T12:59:45;18.48;;;11.70;;
73474;SDS011;61711;52.266;10.542;2023-04-28T13:02:12;21.60;;;11.63;;
73474;SDS011;61711;52.266;10.542;2023-04-28T13:04:41;18.52;;;11.55;;
73474;SDS011;61711;52.266;10.542;2023-04-28T13:07:09;18.05;;;12.15;;
73474;SDS011;61711;52.266;10.542;2023-04-28T13:09:35;18.80;;;12.15;;
73474;SDS011;61711;52.266;10.542;2023-04-28T13:12:01;18.45;;;11.63;;
73474;SDS011;61711;52.266;10.542;2023-04-28T13:14:29;18.00;;;11.63;;
73474;SDS011;61711;52.266;10.542;2023-04-28T13:16:55;22.80;;;11.77;;
73474;SDS011;61711;52.266;10.542;2023-04-28T13:19:22;20.70;;;12.50;;
73474;SDS011;61711;52.266;10.542;2023-04-28T13:21:48;19.75;;;12.13;;
73474;SDS011;61711;52.266;10.542;2023-04-28T13:24:14;18.67;;;12.48;;
73474;SDS011;61711;52.266;10.542;2023-04-28T13:26:40;18.88;;;11.80;;
73474;SDS011;61711;52.266;10.542;2023-04-28T13:29:08;21.10;;;12.90;;
73474;SDS011;61711;52.266;10.542;2023-04-28T13:31:35;21.30;;;13.18;;
73474;SDS011;61711;52.266;10.542;2023-04-28T13:34:01;18.58;;;12.45;;
73474;SDS011;61711;52.266;10.542;2023-04-28T13:36:29;20.20;;;12.50;;
73474;SDS011;61711;52.266;10.542;2023-04-28T13:38:55;22.13;;;12.73;;
73474;SDS011;61711;52.266;10.542;2023-04-28T13:41:21;17.55;;;12.65;;
73474;SDS011;61711;52.266;10.542;2023-04-28T13:43:47;21.33;;;12.88;;
73474;SDS011;61711;52.266;10.542;2023-04-28T13:46:13;20.65;;;13.07;;
73474;SDS011;61711;52.266;10.542;2023-04-28T13:48:39;20.25;;;12.50;;
73474;SDS011;61711;52.266;10.542;2023-04-28T13:51:06;19.48;;;13.10;;
73474;SDS011;61711;52.266;10.542;2023-04-28T13:53:33;21.45;;;13.65;;
73474;SDS011;61711;52.266;10.542;2023-04-28T13:56:00;18.50;;;13.02;;
73474;SDS011;61711;52.266;10.542;2023-04-28T13:58:26;18.35;;;13.02;;
73474;SDS011;61711;52.266;10.542;2023-04-28T14:00:53;18.55;;;12.93;;
73474;SDS011;61711;52.266;10.542;2023-04-28T14:03:19;20.92;;;13.52;;
73474;SDS011;61711;52.266;10.542;2023-04-28T14:05:50;19.83;;;12.98;;
73474;SDS011;61711;52.266;10.542;2023-04-28T14:08:16;23.13;;;12.80;;
73474;SDS011;61711;52.266;10.542;2023-04-28T14:10:42;22.92;;;13.38;;
73474;SDS011;61711;52.266;10.542;2023-04-28T14:13:08;21.80;;;13.63;;
73474;SDS011;61711;52.266;10.542;2023-04-28T14:15:34;20.00;;;13.15;;
73474;SDS011;61711;52.266;10.542;2023-04-28T14:18:01;22.20;;;13.70;;
73474;SDS011;61711;52.266;10.542;2023-04-28T14:20:27;28.80;;;15.65;;
73474;SDS011;61711;52.266;10.542;2023-04-28T14:22:53;18.45;;;11.93;;
73474;SDS011;61711;52.266;10.542;2023-04-28T14:25:19;20.83;;;11.93;;
73474;SDS011;61711;52.266;10.542;2023-04-28T14:27:48;16.95;;;11.88;;
73474;SDS011;61711;52.266;10.542;2023-04-28T14:30:14;19.45;;;11.52;;
73474;SDS011;61711;52.266;10.542;2023-04-28T14:32:40;17.58;;;11.55;;
73474;SDS011;61711;52.266;10.542;2023-04-28T14:35:07;15.13;;;11.05;;
73474;SDS011;61711;52.266;10.542;2023-04-28T14:37:33;22.83;;;12.43;;
73474;SDS011;61711;52.266;10.542;2023-04-28T14:39:59;17.10;;;11.50;;
73474;SDS011;61711;52.266;10.542;2023-04-28T14:42:29;20.35;;;11.88;;
73474;SDS011;61711;52.266;10.542;2023-04-28T14:44:56;18.60;;;12.75;;
73474;SDS011;61711;52.266;10.542;2023-04-28T14:47:22;16.10;;;11.73;;